createdAt,value
2019-03-28T00:01:25.565Z,3.40
2019-03-28T00:03:54.056Z,3.40
2019-03-28T00:06:23.122Z,3.50
2019-03-28T00:08:51.753Z,3.40
2019-03-28T00:11:20.285Z,3.20
2019-03-28T00:13:48.773Z,2.90
2019-03-28T00:16:17.311Z,2.90
2019-03-28T00:18:45.879Z,3.20
2019-03-28T00:21:14.410Z,3.10
2019-03-28T00:23:44.614Z,3.00
2019-03-28T00:26:13.083Z,3.10
2019-03-28T00:28:41.653Z,3.10
2019-03-28T00:31:10.195Z,3.10
2019-03-28T00:33:38.761Z,3.00
2019-03-28T00:36:07.299Z,3.10
2019-03-28T00:38:35.857Z,3.20
2019-03-28T00:41:04.402Z,3.30
2019-03-28T00:43:32.942Z,3.20
2019-03-28T00:46:01.508Z,3.20
2019-03-28T00:48:30.041Z,3.20
2019-03-28T00:50:58.609Z,3.10
2019-03-28T00:53:27.141Z,3.20
2019-03-28T00:55:55.636Z,3.00
2019-03-28T00:58:24.166Z,3.00
2019-03-28T01:00:52.730Z,3.00
2019-03-28T01:03:21.271Z,2.90
2019-03-28T01:05:49.829Z,2.90
2019-03-28T01:08:18.368Z,2.90
2019-03-28T01:10:47.255Z,3.00
2019-03-28T01:13:15.980Z,2.90
2019-03-28T01:15:44.905Z,3.00
2019-03-28T01:18:13.510Z,3.00
2019-03-28T01:20:42.159Z,3.00
2019-03-28T01:23:10.689Z,3.10
2019-03-28T01:25:39.186Z,3.20
2019-03-28T01:28:07.726Z,3.00
2019-03-28T01:30:36.292Z,3.00
2019-03-28T01:33:04.822Z,3.00
2019-03-28T01:35:33.394Z,2.90
2019-03-28T01:38:02.301Z,2.90
2019-03-28T01:40:30.863Z,3.00
2019-03-28T01:42:59.397Z,3.20
2019-03-28T01:45:27.904Z,3.10
2019-03-28T01:47:56.439Z,2.90
2019-03-28T01:50:25.041Z,2.80
2019-03-28T01:52:53.600Z,2.70
2019-03-28T01:55:22.128Z,2.60
2019-03-28T01:57:50.615Z,2.80
2019-03-28T02:00:19.146Z,2.70
2019-03-28T02:02:47.710Z,2.70
2019-03-28T02:05:16.242Z,2.80
2019-03-28T02:07:44.725Z,2.80
2019-03-28T02:10:13.264Z,2.80
2019-03-28T02:12:41.894Z,2.70
2019-03-28T02:15:10.607Z,2.90
2019-03-28T02:17:39.160Z,2.90
2019-03-28T02:20:10.302Z,2.80
2019-03-28T02:22:39.021Z,2.80
2019-03-28T02:25:07.925Z,2.60
2019-03-28T02:27:36.493Z,2.60
2019-03-28T02:30:07.106Z,2.50
2019-03-28T02:32:35.675Z,2.70
2019-03-28T02:35:06.332Z,2.50
2019-03-28T02:37:34.900Z,2.60
2019-03-28T02:40:04.569Z,2.60
2019-03-28T02:42:33.138Z,2.50
2019-03-28T02:45:01.686Z,2.50
2019-03-28T02:47:30.258Z,2.50
2019-03-28T02:49:58.778Z,2.50
2019-03-28T02:52:27.352Z,2.50
2019-03-28T02:54:55.894Z,2.40
2019-03-28T02:57:39.662Z,2.40
2019-03-28T02:59:54.850Z,2.40
2019-03-28T03:02:23.506Z,2.40
2019-03-28T03:04:52.146Z,2.40
2019-03-28T03:07:20.803Z,2.40
2019-03-28T03:09:49.411Z,2.30
2019-03-28T03:12:17.963Z,2.40
2019-03-28T03:14:46.527Z,2.40
2019-03-28T03:17:15.786Z,2.60
2019-03-28T03:19:44.534Z,2.60
2019-03-28T03:22:13.062Z,2.50
2019-03-28T03:24:41.634Z,2.50
2019-03-28T03:27:10.154Z,2.50
2019-03-28T03:29:38.725Z,2.80
2019-03-28T03:32:07.255Z,2.80
2019-03-28T03:34:35.820Z,3.00
2019-03-28T03:37:04.371Z,3.00
2019-03-28T03:39:32.910Z,2.90
2019-03-28T03:42:01.518Z,2.70
2019-03-28T03:44:30.075Z,2.60
2019-03-28T03:46:58.610Z,2.60
2019-03-28T03:49:27.170Z,2.40
2019-03-28T03:51:55.718Z,2.30
2019-03-28T03:54:24.267Z,2.40
2019-03-28T03:56:52.815Z,2.40
2019-03-28T03:59:21.364Z,2.30
2019-03-28T04:01:49.826Z,2.50
2019-03-28T04:04:18.388Z,2.40
2019-03-28T04:06:47.709Z,2.40
2019-03-28T04:09:16.318Z,2.40
2019-03-28T04:11:45.743Z,2.40
2019-03-28T04:14:14.377Z,2.50
2019-03-28T04:16:42.927Z,2.20
2019-03-28T04:19:11.453Z,2.20
2019-03-28T04:21:40.028Z,2.20
2019-03-28T04:24:08.569Z,2.10
2019-03-28T04:26:37.140Z,2.10
2019-03-28T04:29:05.682Z,2.10
2019-03-28T04:31:34.308Z,2.20
2019-03-28T04:34:07.432Z,2.30
2019-03-28T04:36:33.049Z,2.40
2019-03-28T04:39:01.582Z,2.40
2019-03-28T04:41:30.071Z,2.40
2019-03-28T04:43:58.606Z,2.40
2019-03-28T04:46:27.112Z,2.50
2019-03-28T04:48:55.637Z,2.50
2019-03-28T04:51:24.206Z,2.40
2019-03-28T04:53:52.741Z,2.40
2019-03-28T04:56:21.234Z,2.80
2019-03-28T04:58:49.766Z,2.90
2019-03-28T05:01:18.250Z,2.90
2019-03-28T05:03:46.783Z,2.80
2019-03-28T05:06:15.420Z,2.70
2019-03-28T05:08:43.948Z,2.80
2019-03-28T05:11:12.515Z,2.90
2019-03-28T05:13:41.059Z,2.80
2019-03-28T05:16:09.622Z,2.80
2019-03-28T05:18:38.172Z,2.70
2019-03-28T05:21:06.733Z,3.00
2019-03-28T05:23:35.314Z,2.90
2019-03-28T05:26:03.892Z,2.90
2019-03-28T05:28:32.348Z,2.90
2019-03-28T05:31:00.838Z,2.70
2019-03-28T05:33:29.306Z,2.80
2019-03-28T05:35:57.872Z,2.90
2019-03-28T05:38:26.417Z,3.00
2019-03-28T05:40:55.047Z,3.00
2019-03-28T05:43:23.589Z,3.10
2019-03-28T05:45:52.150Z,2.90
2019-03-28T05:48:20.692Z,2.90
2019-03-28T05:50:49.250Z,2.90
2019-03-28T05:53:17.795Z,2.90
2019-03-28T05:55:46.340Z,3.00
2019-03-28T05:58:14.906Z,2.90
2019-03-28T06:00:43.441Z,3.10
2019-03-28T06:03:11.925Z,3.30
2019-03-28T06:05:40.385Z,3.50
2019-03-28T06:08:08.892Z,3.50
2019-03-28T06:10:37.433Z,3.60
2019-03-28T06:13:05.996Z,3.60
2019-03-28T06:15:34.468Z,3.60
2019-03-28T06:18:03.026Z,3.60
2019-03-28T06:20:31.571Z,3.60
2019-03-28T06:23:00.134Z,3.60
2019-03-28T06:25:28.675Z,3.70
2019-03-28T06:27:57.242Z,3.60
2019-03-28T06:30:25.774Z,3.70
2019-03-28T06:32:54.333Z,3.90
2019-03-28T06:35:22.799Z,4.10
2019-03-28T06:37:51.691Z,3.90
2019-03-28T06:40:20.306Z,4.20
2019-03-28T06:42:48.789Z,4.40
2019-03-28T06:45:17.255Z,4.40
2019-03-28T06:47:45.821Z,4.40
2019-03-28T06:50:14.894Z,4.50
2019-03-28T06:52:43.454Z,4.40
2019-03-28T06:55:11.981Z,4.60
2019-03-28T06:57:40.469Z,4.70
2019-03-28T07:00:11.070Z,4.80
2019-03-28T07:02:39.558Z,5.00
2019-03-28T07:05:08.259Z,5.10
2019-03-28T07:07:36.750Z,5.10
2019-03-28T07:10:07.331Z,5.10
2019-03-28T07:12:35.888Z,5.20
2019-03-28T07:15:06.803Z,5.40
2019-03-28T07:17:35.341Z,5.50
2019-03-28T07:20:04.067Z,5.60
2019-03-28T07:22:32.610Z,5.70
2019-03-28T07:25:01.173Z,5.90
2019-03-28T07:27:29.641Z,5.70
2019-03-28T07:29:58.201Z,5.80
2019-03-28T07:32:26.742Z,5.90
2019-03-28T07:34:55.307Z,5.90
2019-03-28T07:37:23.839Z,6.00
2019-03-28T07:39:52.407Z,6.20
2019-03-28T07:42:20.944Z,6.30
2019-03-28T07:44:49.518Z,6.60
2019-03-28T07:47:17.978Z,6.70
2019-03-28T07:49:46.498Z,6.90
2019-03-28T07:52:15.045Z,7.00
2019-03-28T07:54:43.587Z,7.00
2019-03-28T07:57:12.162Z,7.00
2019-03-28T07:59:43.836Z,7.10
2019-03-28T08:02:10.934Z,7.20
2019-03-28T08:04:39.511Z,7.10
2019-03-28T08:07:08.053Z,7.20
2019-03-28T08:09:37.123Z,7.20
2019-03-28T08:12:05.848Z,7.20
2019-03-28T08:14:34.494Z,7.20
2019-03-28T08:17:03.074Z,7.30
2019-03-28T08:19:31.538Z,7.30
2019-03-28T08:22:00.117Z,7.60
2019-03-28T08:24:28.658Z,7.90
2019-03-28T08:26:57.250Z,8.10
2019-03-28T08:29:25.789Z,8.10
2019-03-28T08:31:55.116Z,8.20
2019-03-28T08:34:23.720Z,8.20
2019-03-28T08:36:53.030Z,8.10
2019-03-28T08:39:23.110Z,8.30
2019-03-28T08:41:51.695Z,8.40
2019-03-28T08:44:22.672Z,8.60
2019-03-28T08:46:50.463Z,8.70
2019-03-28T08:49:18.994Z,8.70
2019-03-28T08:51:47.511Z,8.80
2019-03-28T08:54:16.061Z,8.60
2019-03-28T08:56:44.587Z,9.10
2019-03-28T08:59:13.167Z,9.00
2019-03-28T09:01:41.771Z,9.30
2019-03-28T09:04:10.351Z,9.70
2019-03-28T09:06:38.894Z,10.00
2019-03-28T09:09:09.786Z,10.20
2019-03-28T09:11:38.254Z,10.50
2019-03-28T09:14:06.833Z,10.60
2019-03-28T09:16:35.312Z,10.80
2019-03-28T09:19:03.929Z,11.10
2019-03-28T09:21:32.458Z,11.00
2019-03-28T09:24:01.002Z,11.00
2019-03-28T09:26:29.587Z,11.40
2019-03-28T09:28:58.170Z,11.80
2019-03-28T09:31:26.818Z,12.10
2019-03-28T09:33:55.362Z,12.30
2019-03-28T09:36:23.958Z,12.30
2019-03-28T09:38:52.495Z,12.40
2019-03-28T09:41:21.083Z,12.70
2019-03-28T09:43:55.472Z,12.80
2019-03-28T09:46:19.979Z,12.80
2019-03-28T09:48:48.561Z,13.00
2019-03-28T09:51:17.064Z,13.10
2019-03-28T09:53:45.538Z,12.80
2019-03-28T09:56:14.046Z,13.10
2019-03-28T09:58:42.636Z,13.40
2019-03-28T10:01:11.311Z,13.60
2019-03-28T10:03:39.849Z,13.80
2019-03-28T10:06:08.398Z,13.90
2019-03-28T10:08:36.983Z,13.90
2019-03-28T10:11:05.522Z,14.00
2019-03-28T10:13:34.097Z,13.90
2019-03-28T10:16:02.642Z,13.40
2019-03-28T10:18:31.218Z,13.40
2019-03-28T10:20:59.753Z,13.40
2019-03-28T10:23:28.261Z,13.90
2019-03-28T10:25:56.772Z,14.10
2019-03-28T10:28:25.324Z,14.50
2019-03-28T10:30:53.978Z,14.40
2019-03-28T10:33:22.526Z,14.70
2019-03-28T10:35:51.118Z,15.00
2019-03-28T10:38:19.654Z,15.00
2019-03-28T10:40:48.125Z,15.20
2019-03-28T10:43:16.731Z,15.00
2019-03-28T10:45:45.315Z,15.10
2019-03-28T10:48:14.434Z,15.50
2019-03-28T10:50:45.784Z,15.70
2019-03-28T10:53:13.282Z,15.80
2019-03-28T10:55:42.563Z,16.00
2019-03-28T10:58:18.774Z,16.30
2019-03-28T11:00:41.574Z,16.20
2019-03-28T11:03:10.041Z,16.00
2019-03-28T11:05:38.510Z,15.80
2019-03-28T11:08:07.090Z,15.10
2019-03-28T11:10:35.772Z,15.00
2019-03-28T11:13:04.374Z,15.20
2019-03-28T11:15:32.877Z,15.10
2019-03-28T11:18:01.347Z,15.20
2019-03-28T11:20:29.918Z,15.40
2019-03-28T11:22:58.394Z,15.50
2019-03-28T11:25:27.071Z,15.10
2019-03-28T11:27:55.570Z,14.70
2019-03-28T11:30:24.074Z,15.00
2019-03-28T11:32:52.540Z,15.20
2019-03-28T11:35:21.120Z,15.20
2019-03-28T11:37:49.658Z,15.00
2019-03-28T11:40:18.680Z,14.70
2019-03-28T11:42:47.209Z,14.80
2019-03-28T11:45:15.863Z,15.00
2019-03-28T11:47:44.393Z,15.30
2019-03-28T11:50:16.838Z,15.50
2019-03-28T11:52:43.788Z,15.80
2019-03-28T11:55:12.682Z,15.80
2019-03-28T11:57:41.191Z,15.90
2019-03-28T12:00:12.914Z,16.10
2019-03-28T12:02:41.491Z,15.60
2019-03-28T12:05:10.199Z,15.80
2019-03-28T12:07:38.778Z,15.80
2019-03-28T12:10:10.017Z,15.50
2019-03-28T12:12:38.526Z,15.60
2019-03-28T12:15:08.806Z,15.50
2019-03-28T12:17:37.450Z,15.60
2019-03-28T12:20:07.555Z,15.40
2019-03-28T12:22:36.197Z,15.50
2019-03-28T12:25:06.202Z,15.40
2019-03-28T12:27:34.797Z,15.40
2019-03-28T12:30:04.299Z,15.20
2019-03-28T12:32:34.384Z,15.30
2019-03-28T12:35:03.026Z,15.20
2019-03-28T12:37:31.493Z,15.30
2019-03-28T12:40:00.226Z,15.50
2019-03-28T12:42:29.005Z,15.60
2019-03-28T12:44:58.423Z,15.50
2019-03-28T12:47:41.239Z,15.30
2019-03-28T12:49:57.846Z,15.50
2019-03-28T12:52:29.611Z,15.60
2019-03-28T12:54:56.599Z,15.90
2019-03-28T12:57:25.137Z,15.90
2019-03-28T12:59:53.882Z,15.80
2019-03-28T13:02:30.168Z,15.80
2019-03-28T13:04:52.701Z,16.10
2019-03-28T13:07:21.248Z,16.20
2019-03-28T13:09:49.990Z,16.30
2019-03-28T13:12:18.930Z,16.40
2019-03-28T13:14:47.812Z,16.60
2019-03-28T13:17:16.572Z,16.70
2019-03-28T13:19:45.154Z,16.70
2019-03-28T13:22:13.692Z,16.40
2019-03-28T13:24:42.268Z,16.40
2019-03-28T13:27:10.918Z,16.30
2019-03-28T13:29:39.453Z,16.50
2019-03-28T13:32:08.466Z,16.70
2019-03-28T13:34:37.001Z,16.80
2019-03-28T13:37:05.469Z,17.10
2019-03-28T13:39:34.054Z,17.60
2019-03-28T13:42:02.640Z,17.50
2019-03-28T13:44:31.179Z,16.80
2019-03-28T13:46:59.756Z,16.60
2019-03-28T13:49:28.332Z,16.40
2019-03-28T13:51:56.793Z,16.20
2019-03-28T13:54:25.389Z,16.10
2019-03-28T13:56:53.906Z,16.00
2019-03-28T13:59:22.514Z,15.80
2019-03-28T14:01:50.981Z,15.90
2019-03-28T14:04:19.553Z,15.70
2019-03-28T14:06:48.016Z,15.50
2019-03-28T14:09:16.592Z,15.40
2019-03-28T14:11:45.130Z,15.40
2019-03-28T14:14:13.702Z,15.40
2019-03-28T14:16:42.323Z,15.50
2019-03-28T14:19:10.838Z,15.50
2019-03-28T14:21:39.367Z,15.40
2019-03-28T14:24:07.951Z,15.40
2019-03-28T14:26:37.680Z,15.10
2019-03-28T14:29:07.149Z,15.20
2019-03-28T14:31:35.714Z,15.00
2019-03-28T14:34:04.362Z,15.10
2019-03-28T14:36:32.942Z,14.90
2019-03-28T14:39:01.533Z,15.10
2019-03-28T14:41:30.065Z,15.10
2019-03-28T14:43:58.525Z,15.10
2019-03-28T14:46:27.046Z,15.20
2019-03-28T14:48:55.572Z,15.20
2019-03-28T14:51:24.316Z,15.00
2019-03-28T14:53:52.871Z,14.90
2019-03-28T14:56:21.517Z,15.20
2019-03-28T14:58:52.866Z,15.20
2019-03-28T15:01:21.439Z,15.20
2019-03-28T15:03:50.012Z,15.10
2019-03-28T15:06:18.478Z,15.30
2019-03-28T15:08:47.052Z,15.40
2019-03-28T15:11:15.585Z,15.30
2019-03-28T15:13:44.089Z,15.40
2019-03-28T15:16:12.805Z,15.40
2019-03-28T15:18:41.354Z,15.50
2019-03-28T15:21:09.882Z,15.30
2019-03-28T15:23:38.387Z,15.50
2019-03-28T15:26:06.897Z,15.30
2019-03-28T15:28:35.429Z,15.30
2019-03-28T15:31:04.007Z,15.40
2019-03-28T15:33:39.589Z,15.40
2019-03-28T15:36:02.788Z,15.10
2019-03-28T15:38:31.611Z,15.20
2019-03-28T15:41:00.157Z,15.20
2019-03-28T15:43:28.739Z,15.00
2019-03-28T15:45:57.280Z,15.00
2019-03-28T15:48:26.346Z,14.80
2019-03-28T15:50:54.811Z,14.90
2019-03-28T15:53:23.770Z,14.90
2019-03-28T15:55:52.489Z,14.80
2019-03-28T15:58:23.629Z,14.80
2019-03-28T16:00:51.279Z,14.80
2019-03-28T16:03:19.814Z,14.90
2019-03-28T16:05:58.228Z,15.00
2019-03-28T16:08:18.914Z,14.90
2019-03-28T16:10:47.457Z,14.90
2019-03-28T16:13:16.015Z,14.80
2019-03-28T16:15:44.573Z,14.70
2019-03-28T16:18:13.707Z,14.60
2019-03-28T16:20:42.403Z,14.80
2019-03-28T16:23:10.936Z,14.80
2019-03-28T16:25:39.431Z,14.70
2019-03-28T16:28:07.962Z,14.60
2019-03-28T16:30:38.144Z,14.50
2019-03-28T16:33:06.809Z,14.50
2019-03-28T16:35:35.387Z,14.50
2019-03-28T16:38:03.913Z,14.40
2019-03-28T16:40:32.474Z,14.50
2019-03-28T16:43:01.005Z,14.50
2019-03-28T16:45:29.566Z,14.40
2019-03-28T16:47:58.268Z,14.30
2019-03-28T16:50:26.762Z,14.20
2019-03-28T16:52:55.291Z,14.00
2019-03-28T16:55:26.535Z,14.00
2019-03-28T16:57:54.136Z,14.00
2019-03-28T17:00:25.809Z,13.90
2019-03-28T17:02:54.271Z,13.90
2019-03-28T17:05:22.728Z,13.90
2019-03-28T17:07:51.714Z,13.80
2019-03-28T17:10:35.447Z,13.80
2019-03-28T17:13:04.001Z,13.70
2019-03-28T17:15:32.565Z,13.90
2019-03-28T17:18:01.032Z,13.90
2019-03-28T17:20:29.571Z,13.90
2019-03-28T17:22:58.134Z,13.80
2019-03-28T17:25:26.673Z,13.60
2019-03-28T17:27:55.269Z,13.40
2019-03-28T17:30:23.813Z,13.50
2019-03-28T17:32:52.370Z,13.40
2019-03-28T17:35:20.849Z,13.30
2019-03-28T17:37:49.407Z,13.30
2019-03-28T17:40:17.946Z,13.20
2019-03-28T17:42:47.958Z,13.30
2019-03-28T17:45:16.665Z,13.30
2019-03-28T17:47:45.235Z,13.30
2019-03-28T17:50:13.925Z,13.40
2019-03-28T17:52:42.496Z,13.40
2019-03-28T17:55:11.187Z,13.20
2019-03-28T17:57:39.903Z,13.20
2019-03-28T18:00:08.938Z,13.20
2019-03-28T18:02:37.502Z,13.30
2019-03-28T18:05:09.748Z,13.30
2019-03-28T18:07:36.997Z,13.10
2019-03-28T18:10:08.582Z,12.90
2019-03-28T18:12:37.196Z,12.90
2019-03-28T18:15:06.365Z,12.80
2019-03-28T18:17:34.996Z,12.90
2019-03-28T18:20:05.601Z,12.80
2019-03-28T18:22:34.229Z,12.90
2019-03-28T18:25:02.771Z,12.90
2019-03-28T18:27:31.339Z,12.80
2019-03-28T18:29:59.883Z,12.60
2019-03-28T18:32:28.452Z,12.60
2019-03-28T18:35:05.063Z,12.70
2019-03-28T18:37:27.213Z,12.80
2019-03-28T18:39:55.745Z,12.90
2019-03-28T18:42:24.318Z,12.70
2019-03-28T18:44:52.856Z,12.50
2019-03-28T18:47:21.419Z,12.40
2019-03-28T18:49:49.985Z,12.50
2019-03-28T18:52:18.547Z,12.40
2019-03-28T18:54:47.029Z,12.30
2019-03-28T18:57:15.598Z,12.20
2019-03-28T18:59:44.141Z,12.30
2019-03-28T19:02:12.711Z,12.30
2019-03-28T19:04:41.179Z,12.30
2019-03-28T19:07:10.001Z,12.30
2019-03-28T19:09:38.779Z,12.30
2019-03-28T19:12:07.344Z,12.20
2019-03-28T19:14:35.905Z,12.10
2019-03-28T19:17:04.519Z,12.20
2019-03-28T19:19:39.386Z,12.20
2019-03-28T19:22:03.265Z,12.30
2019-03-28T19:24:31.793Z,12.30
2019-03-28T19:27:00.281Z,12.20
2019-03-28T19:29:28.750Z,12.20
2019-03-28T19:31:57.378Z,12.20
2019-03-28T19:34:25.915Z,12.20
2019-03-28T19:36:55.853Z,12.10
2019-03-28T19:39:30.426Z,12.20
2019-03-28T19:41:59.360Z,12.20
2019-03-28T19:44:29.538Z,12.20
2019-03-28T19:46:58.402Z,12.20
2019-03-28T19:49:26.962Z,12.00
2019-03-28T19:51:55.519Z,12.10
2019-03-28T19:54:24.129Z,12.10
2019-03-28T19:56:52.689Z,11.80
2019-03-28T19:59:21.149Z,11.80
2019-03-28T20:01:49.614Z,11.90
2019-03-28T20:04:18.188Z,11.70
2019-03-28T20:06:46.728Z,11.70
2019-03-28T20:09:16.366Z,11.70
2019-03-28T20:11:45.602Z,11.80
2019-03-28T20:14:14.329Z,11.90
2019-03-28T20:16:43.137Z,11.70
2019-03-28T20:19:11.710Z,11.60
2019-03-28T20:21:40.417Z,11.50
2019-03-28T20:24:10.888Z,11.50
2019-03-28T20:26:39.366Z,11.70
2019-03-28T20:29:08.760Z,11.70
2019-03-28T20:31:37.370Z,11.60
2019-03-28T20:34:05.938Z,11.50
2019-03-28T20:36:38.006Z,11.70
2019-03-28T20:39:07.200Z,11.90
2019-03-28T20:41:35.720Z,12.00
2019-03-28T20:44:04.283Z,12.00
2019-03-28T20:46:32.742Z,11.90
2019-03-28T20:49:01.305Z,12.00
2019-03-28T20:51:29.846Z,12.00
2019-03-28T20:53:58.406Z,11.90
2019-03-28T20:56:26.948Z,11.90
2019-03-28T20:58:55.511Z,11.90
2019-03-28T21:01:24.041Z,11.90
2019-03-28T21:03:53.069Z,11.90
2019-03-28T21:06:21.606Z,11.90
2019-03-28T21:08:50.170Z,11.70
2019-03-28T21:11:18.709Z,11.70
2019-03-28T21:13:47.270Z,11.70
2019-03-28T21:16:15.737Z,11.70
2019-03-28T21:18:44.301Z,11.60
2019-03-28T21:21:12.847Z,11.60
2019-03-28T21:23:41.399Z,11.50
2019-03-28T21:26:09.938Z,11.60
2019-03-28T21:28:46.941Z,11.50
2019-03-28T21:31:08.686Z,11.50
2019-03-28T21:33:37.248Z,11.40
2019-03-28T21:36:05.708Z,11.20
2019-03-28T21:38:34.197Z,11.10
2019-03-28T21:41:02.743Z,11.00
2019-03-28T21:43:31.301Z,11.00
2019-03-28T21:45:59.775Z,11.20
2019-03-28T21:48:28.337Z,11.00
2019-03-28T21:50:56.870Z,10.90
2019-03-28T21:53:25.359Z,10.90
2019-03-28T21:55:55.361Z,10.60
2019-03-28T21:58:24.122Z,10.60
2019-03-28T22:00:52.667Z,10.60
2019-03-28T22:03:21.226Z,10.60
2019-03-28T22:05:49.698Z,10.70
2019-03-28T22:08:18.187Z,10.70
2019-03-28T22:10:46.719Z,10.70
2019-03-28T22:13:15.286Z,10.30
2019-03-28T22:15:43.830Z,10.20
2019-03-28T22:18:12.385Z,10.10
2019-03-28T22:20:40.841Z,9.80
2019-03-28T22:23:09.399Z,9.70
2019-03-28T22:25:38.010Z,9.90
2019-03-28T22:28:06.635Z,9.80
2019-03-28T22:30:35.237Z,9.60
2019-03-28T22:33:03.726Z,9.50
2019-03-28T22:35:32.259Z,9.50
2019-03-28T22:38:00.827Z,9.40
2019-03-28T22:40:29.368Z,9.20
2019-03-28T22:42:57.926Z,9.10
2019-03-28T22:45:26.380Z,9.00
2019-03-28T22:47:54.837Z,9.00
2019-03-28T22:50:24.015Z,9.00
2019-03-28T22:52:52.763Z,8.90
2019-03-28T22:55:21.328Z,8.80
2019-03-28T22:57:49.866Z,8.70
2019-03-28T23:00:21.146Z,8.60
2019-03-28T23:02:49.690Z,8.60
2019-03-28T23:05:18.386Z,8.60
2019-03-28T23:07:46.851Z,8.60
2019-03-28T23:10:16.255Z,8.60
2019-03-28T23:12:48.398Z,8.50
2019-03-28T23:15:17.518Z,8.60
2019-03-28T23:17:46.875Z,8.60
2019-03-28T23:20:15.613Z,8.70
2019-03-28T23:22:44.073Z,8.60
2019-03-28T23:25:12.707Z,8.50
2019-03-28T23:27:41.278Z,8.60
2019-03-28T23:30:10.433Z,8.60
2019-03-28T23:32:38.986Z,8.50
2019-03-28T23:35:08.195Z,8.50
2019-03-28T23:37:36.725Z,8.30
2019-03-28T23:40:06.930Z,8.20
2019-03-28T23:42:35.533Z,8.10
2019-03-28T23:45:05.729Z,8.00
2019-03-28T23:47:34.261Z,8.00
2019-03-28T23:50:02.749Z,8.00
2019-03-28T23:52:31.210Z,8.00
2019-03-28T23:54:59.773Z,8.00
2019-03-28T23:57:28.900Z,8.20
2019-03-28T23:59:57.670Z,8.10
